sensor_id;sensor_type;location;lat;lon;timestamp;P1;durP1;ratioP1;P2;durP2;ratioP2
15645;SDS011;7922;43.622;1.476;2023-02-26T00:02:19;5.83;;;5.23;;
15645;SDS011;7922;43.622;1.476;2023-02-26T00:04:45;6.90;;;5.10;;
15645;SDS011;7922;43.622;1.476;2023-02-26T00:07:10;6.73;;;5.60;;
15645;SDS011;7922;43.622;1.476;2023-02-26T00:09:36;6.00;;;5.40;;
15645;SDS011;7922;43.622;1.476;2023-02-26T00:12:01;6.13;;;5.53;;
15645;SDS011;7922;43.622;1.476;2023-02-26T00:14:26;5.90;;;5.30;;
15645;SDS011;7922;43.622;1.476;2023-02-26T00:19:29;7.13;;;6.10;;
15645;SDS011;7922;43.622;1.476;2023-02-26T00:21:55;7.37;;;6.10;;
15645;SDS011;7922;43.622;1.476;2023-02-26T00:24:20;7.10;;;5.53;;
15645;SDS011;7922;43.622;1.476;2023-02-26T00:26:46;6.20;;;5.57;;
15645;SDS011;7922;43.622;1.476;2023-02-26T00:29:11;6.13;;;5.43;;
15645;SDS011;7922;43.622;1.476;2023-02-26T00:31:37;7.90;;;6.80;;
15645;SDS011;7922;43.622;1.476;2023-02-26T00:34:02;6.50;;;5.80;;
15645;SDS011;7922;43.622;1.476;2023-02-26T00:39:06;7.53;;;5.70;;
15645;SDS011;7922;43.622;1.476;2023-02-26T00:41:39;6.97;;;6.23;;
15645;SDS011;7922;43.622;1.476;2023-02-26T00:44:04;7.53;;;6.20;;
15645;SDS011;7922;43.622;1.476;2023-02-26T00:46:39;7.50;;;6.27;;
15645;SDS011;7922;43.622;1.476;2023-02-26T00:49:16;7.63;;;6.17;;
15645;SDS011;7922;43.622;1.476;2023-02-26T00:51:55;10.73;;;6.53;;
15645;SDS011;7922;43.622;1.476;2023-02-26T00:54:23;8.67;;;6.40;;
15645;SDS011;7922;43.622;1.476;2023-02-26T00:56:50;9.07;;;7.13;;
15645;SDS011;7922;43.622;1.476;2023-02-26T00:59:17;9.13;;;7.00;;
15645;SDS011;7922;43.622;1.476;2023-02-26T01:01:43;9.60;;;7.20;;
15645;SDS011;7922;43.622;1.476;2023-02-26T01:04:09;7.37;;;6.67;;
15645;SDS011;7922;43.622;1.476;2023-02-26T01:06:37;8.63;;;7.47;;
15645;SDS011;7922;43.622;1.476;2023-02-26T01:11:54;9.43;;;6.77;;
15645;SDS011;7922;43.622;1.476;2023-02-26T01:14:20;8.27;;;6.70;;
15645;SDS011;7922;43.622;1.476;2023-02-26T01:16:52;7.57;;;6.40;;
15645;SDS011;7922;43.622;1.476;2023-02-26T01:22:12;9.83;;;7.60;;
15645;SDS011;7922;43.622;1.476;2023-02-26T01:25:04;9.70;;;7.63;;
15645;SDS011;7922;43.622;1.476;2023-02-26T01:27:31;9.80;;;7.63;;
15645;SDS011;7922;43.622;1.476;2023-02-26T01:29:57;10.13;;;8.07;;
15645;SDS011;7922;43.622;1.476;2023-02-26T01:32:28;9.00;;;7.87;;
15645;SDS011;7922;43.622;1.476;2023-02-26T01:35:04;9.83;;;7.87;;
15645;SDS011;7922;43.622;1.476;2023-02-26T01:38:02;9.53;;;7.97;;
15645;SDS011;7922;43.622;1.476;2023-02-26T01:46:05;8.17;;;7.37;;
15645;SDS011;7922;43.622;1.476;2023-02-26T01:48:36;10.43;;;7.87;;
15645;SDS011;7922;43.622;1.476;2023-02-26T01:51:10;8.23;;;7.13;;
15645;SDS011;7922;43.622;1.476;2023-02-26T01:53:35;9.30;;;7.87;;
15645;SDS011;7922;43.622;1.476;2023-02-26T01:56:05;10.80;;;7.63;;
15645;SDS011;7922;43.622;1.476;2023-02-26T01:58:36;9.23;;;7.60;;
15645;SDS011;7922;43.622;1.476;2023-02-26T02:01:03;11.23;;;7.73;;
15645;SDS011;7922;43.622;1.476;2023-02-26T02:03:29;8.53;;;7.40;;
15645;SDS011;7922;43.622;1.476;2023-02-26T02:05:59;8.57;;;7.33;;
15645;SDS011;7922;43.622;1.476;2023-02-26T02:08:31;9.47;;;7.90;;
15645;SDS011;7922;43.622;1.476;2023-02-26T02:10:58;9.40;;;7.83;;
15645;SDS011;7922;43.622;1.476;2023-02-26T02:13:33;11.20;;;8.10;;
15645;SDS011;7922;43.622;1.476;2023-02-26T02:32:27;7.00;;;6.40;;
15645;SDS011;7922;43.622;1.476;2023-02-26T02:35:06;10.70;;;6.43;;
15645;SDS011;7922;43.622;1.476;2023-02-26T02:40:06;9.27;;;6.17;;
15645;SDS011;7922;43.622;1.476;2023-02-26T02:42:43;8.47;;;7.20;;
15645;SDS011;7922;43.622;1.476;2023-02-26T02:45:26;7.50;;;6.53;;
15645;SDS011;7922;43.622;1.476;2023-02-26T02:48:00;7.43;;;6.60;;
15645;SDS011;7922;43.622;1.476;2023-02-26T02:50:32;7.20;;;5.90;;
15645;SDS011;7922;43.622;1.476;2023-02-26T02:53:04;6.60;;;5.53;;
15645;SDS011;7922;43.622;1.476;2023-02-26T02:55:38;7.30;;;6.00;;
15645;SDS011;7922;43.622;1.476;2023-02-26T02:58:10;6.53;;;5.70;;
15645;SDS011;7922;43.622;1.476;2023-02-26T03:00:40;8.07;;;5.70;;
15645;SDS011;7922;43.622;1.476;2023-02-26T03:05:38;7.60;;;5.57;;
15645;SDS011;7922;43.622;1.476;2023-02-26T03:08:04;8.83;;;5.63;;
15645;SDS011;7922;43.622;1.476;2023-02-26T03:10:34;6.50;;;5.50;;
15645;SDS011;7922;43.622;1.476;2023-02-26T03:12:59;6.37;;;5.17;;
15645;SDS011;7922;43.622;1.476;2023-02-26T03:15:31;6.67;;;5.37;;
15645;SDS011;7922;43.622;1.476;2023-02-26T03:18:17;8.03;;;5.43;;
15645;SDS011;7922;43.622;1.476;2023-02-26T03:21:29;6.40;;;5.10;;
15645;SDS011;7922;43.622;1.476;2023-02-26T03:23:56;7.33;;;4.97;;
15645;SDS011;7922;43.622;1.476;2023-02-26T03:26:31;8.30;;;5.43;;
15645;SDS011;7922;43.622;1.476;2023-02-26T03:29:05;5.03;;;4.47;;
15645;SDS011;7922;43.622;1.476;2023-02-26T03:36:52;5.73;;;4.57;;
15645;SDS011;7922;43.622;1.476;2023-02-26T03:39:32;5.77;;;4.30;;
15645;SDS011;7922;43.622;1.476;2023-02-26T03:42:04;4.70;;;4.07;;
15645;SDS011;7922;43.622;1.476;2023-02-26T03:44:43;4.30;;;3.90;;
15645;SDS011;7922;43.622;1.476;2023-02-26T03:47:14;5.60;;;3.97;;
15645;SDS011;7922;43.622;1.476;2023-02-26T03:49:41;4.07;;;3.67;;
15645;SDS011;7922;43.622;1.476;2023-02-26T03:52:11;4.70;;;3.80;;
15645;SDS011;7922;43.622;1.476;2023-02-26T03:54:42;5.17;;;3.70;;
15645;SDS011;7922;43.622;1.476;2023-02-26T03:57:13;5.50;;;3.70;;
15645;SDS011;7922;43.622;1.476;2023-02-26T03:59:39;4.20;;;3.80;;
15645;SDS011;7922;43.622;1.476;2023-02-26T04:02:06;4.20;;;3.00;;
15645;SDS011;7922;43.622;1.476;2023-02-26T04:04:44;4.40;;;3.93;;
15645;SDS011;7922;43.622;1.476;2023-02-26T04:07:13;4.53;;;3.30;;
15645;SDS011;7922;43.622;1.476;2023-02-26T04:09:41;4.53;;;3.60;;
15645;SDS011;7922;43.622;1.476;2023-02-26T04:12:08;4.70;;;3.47;;
15645;SDS011;7922;43.622;1.476;2023-02-26T04:14:33;4.80;;;3.70;;
15645;SDS011;7922;43.622;1.476;2023-02-26T04:16:58;3.73;;;3.13;;
15645;SDS011;7922;43.622;1.476;2023-02-26T04:19:24;4.33;;;3.17;;
15645;SDS011;7922;43.622;1.476;2023-02-26T04:21:49;5.10;;;2.80;;
15645;SDS011;7922;43.622;1.476;2023-02-26T04:24:15;3.47;;;3.17;;
15645;SDS011;7922;43.622;1.476;2023-02-26T04:26:40;4.50;;;3.07;;
15645;SDS011;7922;43.622;1.476;2023-02-26T04:29:05;4.83;;;3.23;;
15645;SDS011;7922;43.622;1.476;2023-02-26T04:31:31;4.27;;;3.10;;
15645;SDS011;7922;43.622;1.476;2023-02-26T04:33:56;3.67;;;2.90;;
15645;SDS011;7922;43.622;1.476;2023-02-26T04:36:21;3.37;;;3.07;;
15645;SDS011;7922;43.622;1.476;2023-02-26T04:38:46;5.53;;;3.43;;
15645;SDS011;7922;43.622;1.476;2023-02-26T04:41:12;4.17;;;2.90;;
15645;SDS011;7922;43.622;1.476;2023-02-26T04:43:37;6.23;;;3.20;;
15645;SDS011;7922;43.622;1.476;2023-02-26T04:46:02;3.77;;;3.37;;
15645;SDS011;7922;43.622;1.476;2023-02-26T04:48:28;3.30;;;3.00;;
15645;SDS011;7922;43.622;1.476;2023-02-26T04:50:53;3.73;;;2.70;;
15645;SDS011;7922;43.622;1.476;2023-02-26T04:53:18;4.17;;;3.40;;
15645;SDS011;7922;43.622;1.476;2023-02-26T04:55:46;3.00;;;2.60;;
15645;SDS011;7922;43.622;1.476;2023-02-26T04:58:12;5.00;;;2.90;;
15645;SDS011;7922;43.622;1.476;2023-02-26T05:00:37;3.77;;;2.70;;
15645;SDS011;7922;43.622;1.476;2023-02-26T05:03:02;4.53;;;3.07;;
15645;SDS011;7922;43.622;1.476;2023-02-26T05:05:27;5.90;;;3.23;;
15645;SDS011;7922;43.622;1.476;2023-02-26T05:07:53;5.47;;;2.97;;
15645;SDS011;7922;43.622;1.476;2023-02-26T05:10:18;3.10;;;2.80;;
15645;SDS011;7922;43.622;1.476;2023-02-26T05:12:43;4.27;;;3.13;;
15645;SDS011;7922;43.622;1.476;2023-02-26T05:15:09;5.43;;;3.00;;
15645;SDS011;7922;43.622;1.476;2023-02-26T05:17:35;3.57;;;3.00;;
15645;SDS011;7922;43.622;1.476;2023-02-26T05:20:00;4.33;;;3.00;;
15645;SDS011;7922;43.622;1.476;2023-02-26T05:22:25;4.90;;;3.00;;
15645;SDS011;7922;43.622;1.476;2023-02-26T05:24:51;4.40;;;3.10;;
15645;SDS011;7922;43.622;1.476;2023-02-26T05:27:16;3.33;;;2.40;;
15645;SDS011;7922;43.622;1.476;2023-02-26T05:29:41;3.50;;;3.00;;
15645;SDS011;7922;43.622;1.476;2023-02-26T05:32:06;6.17;;;4.03;;
15645;SDS011;7922;43.622;1.476;2023-02-26T05:34:32;5.70;;;2.97;;
15645;SDS011;7922;43.622;1.476;2023-02-26T05:36:57;4.60;;;3.00;;
15645;SDS011;7922;43.622;1.476;2023-02-26T05:39:22;2.83;;;2.63;;
15645;SDS011;7922;43.622;1.476;2023-02-26T05:41:48;5.97;;;3.03;;
15645;SDS011;7922;43.622;1.476;2023-02-26T05:44:13;3.77;;;2.90;;
15645;SDS011;7922;43.622;1.476;2023-02-26T05:46:38;3.77;;;3.07;;
15645;SDS011;7922;43.622;1.476;2023-02-26T05:49:03;5.80;;;3.13;;
15645;SDS011;7922;43.622;1.476;2023-02-26T05:51:29;4.00;;;3.30;;
15645;SDS011;7922;43.622;1.476;2023-02-26T05:53:54;4.57;;;3.10;;
15645;SDS011;7922;43.622;1.476;2023-02-26T05:56:19;4.37;;;3.30;;
15645;SDS011;7922;43.622;1.476;2023-02-26T05:58:45;3.83;;;3.40;;
15645;SDS011;7922;43.622;1.476;2023-02-26T06:01:10;4.70;;;3.03;;
15645;SDS011;7922;43.622;1.476;2023-02-26T06:03:36;5.47;;;3.50;;
15645;SDS011;7922;43.622;1.476;2023-02-26T06:06:01;4.20;;;3.10;;
15645;SDS011;7922;43.622;1.476;2023-02-26T06:08:26;5.63;;;3.60;;
15645;SDS011;7922;43.622;1.476;2023-02-26T06:10:52;4.57;;;3.10;;
15645;SDS011;7922;43.622;1.476;2023-02-26T06:13:17;4.27;;;3.50;;
15645;SDS011;7922;43.622;1.476;2023-02-26T06:15:42;4.40;;;3.43;;
15645;SDS011;7922;43.622;1.476;2023-02-26T06:18:08;5.17;;;3.50;;
15645;SDS011;7922;43.622;1.476;2023-02-26T06:20:34;5.70;;;3.20;;
15645;SDS011;7922;43.622;1.476;2023-02-26T06:22:59;4.27;;;3.73;;
15645;SDS011;7922;43.622;1.476;2023-02-26T06:25:24;6.17;;;3.50;;
15645;SDS011;7922;43.622;1.476;2023-02-26T06:27:50;3.60;;;3.23;;
15645;SDS011;7922;43.622;1.476;2023-02-26T06:30:15;5.03;;;3.53;;
15645;SDS011;7922;43.622;1.476;2023-02-26T06:32:41;6.17;;;3.80;;
15645;SDS011;7922;43.622;1.476;2023-02-26T06:35:06;3.77;;;3.37;;
15645;SDS011;7922;43.622;1.476;2023-02-26T06:37:32;7.03;;;5.43;;
15645;SDS011;7922;43.622;1.476;2023-02-26T06:39:57;8.33;;;5.10;;
15645;SDS011;7922;43.622;1.476;2023-02-26T06:42:22;4.70;;;3.90;;
15645;SDS011;7922;43.622;1.476;2023-02-26T06:44:47;5.97;;;3.53;;
15645;SDS011;7922;43.622;1.476;2023-02-26T06:47:13;7.30;;;4.47;;
15645;SDS011;7922;43.622;1.476;2023-02-26T06:49:38;6.77;;;4.27;;
15645;SDS011;7922;43.622;1.476;2023-02-26T06:52:03;6.87;;;4.13;;
15645;SDS011;7922;43.622;1.476;2023-02-26T06:54:29;6.00;;;3.67;;
15645;SDS011;7922;43.622;1.476;2023-02-26T06:56:54;5.80;;;3.30;;
15645;SDS011;7922;43.622;1.476;2023-02-26T06:59:19;5.47;;;3.63;;
15645;SDS011;7922;43.622;1.476;2023-02-26T07:01:44;6.27;;;3.60;;
15645;SDS011;7922;43.622;1.476;2023-02-26T07:04:10;4.10;;;3.20;;
15645;SDS011;7922;43.622;1.476;2023-02-26T07:06:35;6.10;;;3.37;;
15645;SDS011;7922;43.622;1.476;2023-02-26T07:09:00;4.07;;;3.17;;
15645;SDS011;7922;43.622;1.476;2023-02-26T07:11:25;5.27;;;3.20;;
15645;SDS011;7922;43.622;1.476;2023-02-26T07:13:51;6.60;;;3.27;;
15645;SDS011;7922;43.622;1.476;2023-02-26T07:16:16;8.30;;;2.93;;
15645;SDS011;7922;43.622;1.476;2023-02-26T07:18:41;5.10;;;2.77;;
15645;SDS011;7922;43.622;1.476;2023-02-26T07:21:07;4.27;;;2.70;;
15645;SDS011;7922;43.622;1.476;2023-02-26T07:23:32;7.47;;;3.10;;
15645;SDS011;7922;43.622;1.476;2023-02-26T07:25:58;3.93;;;2.70;;
15645;SDS011;7922;43.622;1.476;2023-02-26T07:28:23;3.03;;;2.60;;
15645;SDS011;7922;43.622;1.476;2023-02-26T07:30:48;3.43;;;2.30;;
15645;SDS011;7922;43.622;1.476;2023-02-26T07:33:14;4.33;;;2.53;;
15645;SDS011;7922;43.622;1.476;2023-02-26T07:35:39;6.20;;;3.10;;
15645;SDS011;7922;43.622;1.476;2023-02-26T07:38:04;5.67;;;2.53;;
15645;SDS011;7922;43.622;1.476;2023-02-26T07:40:30;2.77;;;2.50;;
15645;SDS011;7922;43.622;1.476;2023-02-26T07:42:56;4.73;;;2.67;;
15645;SDS011;7922;43.622;1.476;2023-02-26T07:45:22;4.47;;;2.50;;
15645;SDS011;7922;43.622;1.476;2023-02-26T07:47:48;3.70;;;2.20;;
15645;SDS011;7922;43.622;1.476;2023-02-26T07:50:14;3.33;;;2.27;;
15645;SDS011;7922;43.622;1.476;2023-02-26T07:52:40;5.97;;;2.60;;
15645;SDS011;7922;43.622;1.476;2023-02-26T07:55:05;4.43;;;2.50;;
15645;SDS011;7922;43.622;1.476;2023-02-26T07:57:31;6.47;;;2.27;;
15645;SDS011;7922;43.622;1.476;2023-02-26T07:59:56;5.57;;;2.43;;
15645;SDS011;7922;43.622;1.476;2023-02-26T08:02:22;3.43;;;2.30;;
15645;SDS011;7922;43.622;1.476;2023-02-26T08:04:47;6.47;;;2.50;;
15645;SDS011;7922;43.622;1.476;2023-02-26T08:07:12;3.77;;;2.13;;
15645;SDS011;7922;43.622;1.476;2023-02-26T08:09:38;3.97;;;2.37;;
15645;SDS011;7922;43.622;1.476;2023-02-26T08:12:03;3.20;;;2.23;;
15645;SDS011;7922;43.622;1.476;2023-02-26T08:14:29;4.00;;;2.40;;
15645;SDS011;7922;43.622;1.476;2023-02-26T08:16:54;5.70;;;2.50;;
15645;SDS011;7922;43.622;1.476;2023-02-26T08:19:19;5.10;;;2.50;;
15645;SDS011;7922;43.622;1.476;2023-02-26T08:21:44;5.53;;;2.63;;
15645;SDS011;7922;43.622;1.476;2023-02-26T08:24:10;6.73;;;3.03;;
15645;SDS011;7922;43.622;1.476;2023-02-26T08:26:36;4.83;;;2.57;;
15645;SDS011;7922;43.622;1.476;2023-02-26T08:29:02;5.23;;;2.57;;
15645;SDS011;7922;43.622;1.476;2023-02-26T08:31:28;4.67;;;2.80;;
15645;SDS011;7922;43.622;1.476;2023-02-26T08:33:53;5.00;;;2.97;;
15645;SDS011;7922;43.622;1.476;2023-02-26T08:36:19;5.37;;;2.73;;
15645;SDS011;7922;43.622;1.476;2023-02-26T08:38:44;4.67;;;2.47;;
15645;SDS011;7922;43.622;1.476;2023-02-26T08:41:10;6.10;;;2.53;;
15645;SDS011;7922;43.622;1.476;2023-02-26T08:43:35;4.30;;;2.47;;
15645;SDS011;7922;43.622;1.476;2023-02-26T08:46:00;7.13;;;2.10;;
15645;SDS011;7922;43.622;1.476;2023-02-26T08:48:26;4.20;;;2.30;;
15645;SDS011;7922;43.622;1.476;2023-02-26T08:50:51;5.70;;;2.10;;
15645;SDS011;7922;43.622;1.476;2023-02-26T08:53:16;4.30;;;2.23;;
15645;SDS011;7922;43.622;1.476;2023-02-26T08:55:41;2.37;;;2.03;;
15645;SDS011;7922;43.622;1.476;2023-02-26T08:58:07;4.73;;;2.67;;
15645;SDS011;7922;43.622;1.476;2023-02-26T09:00:32;5.00;;;2.30;;
15645;SDS011;7922;43.622;1.476;2023-02-26T09:02:58;5.77;;;2.40;;
15645;SDS011;7922;43.622;1.476;2023-02-26T09:05:23;6.43;;;2.43;;
15645;SDS011;7922;43.622;1.476;2023-02-26T09:07:48;3.07;;;2.50;;
15645;SDS011;7922;43.622;1.476;2023-02-26T09:10:14;6.37;;;2.50;;
15645;SDS011;7922;43.622;1.476;2023-02-26T09:12:39;5.17;;;3.20;;
15645;SDS011;7922;43.622;1.476;2023-02-26T09:15:05;2.67;;;2.27;;
15645;SDS011;7922;43.622;1.476;2023-02-26T09:17:32;4.67;;;2.57;;
15645;SDS011;7922;43.622;1.476;2023-02-26T09:19:58;6.13;;;2.77;;
15645;SDS011;7922;43.622;1.476;2023-02-26T09:22:23;6.57;;;2.87;;
15645;SDS011;7922;43.622;1.476;2023-02-26T09:24:49;4.73;;;2.60;;
15645;SDS011;7922;43.622;1.476;2023-02-26T09:27:14;3.07;;;2.40;;
15645;SDS011;7922;43.622;1.476;2023-02-26T09:29:40;4.40;;;2.60;;
15645;SDS011;7922;43.622;1.476;2023-02-26T09:32:05;4.93;;;2.50;;
15645;SDS011;7922;43.622;1.476;2023-02-26T09:34:31;4.57;;;3.10;;
15645;SDS011;7922;43.622;1.476;2023-02-26T09:36:56;5.60;;;2.90;;
15645;SDS011;7922;43.622;1.476;2023-02-26T09:39:22;5.17;;;2.50;;
15645;SDS011;7922;43.622;1.476;2023-02-26T09:41:51;5.20;;;3.23;;
15645;SDS011;7922;43.622;1.476;2023-02-26T09:44:31;5.97;;;2.90;;
15645;SDS011;7922;43.622;1.476;2023-02-26T09:49:31;4.20;;;3.10;;
15645;SDS011;7922;43.622;1.476;2023-02-26T09:55:15;4.67;;;2.97;;
15645;SDS011;7922;43.622;1.476;2023-02-26T09:57:47;9.67;;;3.20;;
15645;SDS011;7922;43.622;1.476;2023-02-26T10:00:23;4.53;;;2.83;;
15645;SDS011;7922;43.622;1.476;2023-02-26T10:03:19;5.77;;;3.20;;
15645;SDS011;7922;43.622;1.476;2023-02-26T10:11:30;5.57;;;3.00;;
15645;SDS011;7922;43.622;1.476;2023-02-26T10:14:00;6.10;;;3.57;;
15645;SDS011;7922;43.622;1.476;2023-02-26T10:16:32;4.17;;;3.23;;
15645;SDS011;7922;43.622;1.476;2023-02-26T10:19:03;4.63;;;2.90;;
15645;SDS011;7922;43.622;1.476;2023-02-26T10:24:31;4.10;;;3.10;;
15645;SDS011;7922;43.622;1.476;2023-02-26T10:27:41;6.53;;;3.57;;
15645;SDS011;7922;43.622;1.476;2023-02-26T10:30:27;5.70;;;3.23;;
15645;SDS011;7922;43.622;1.476;2023-02-26T10:35:41;6.23;;;3.60;;
15645;SDS011;7922;43.622;1.476;2023-02-26T10:38:15;4.20;;;3.20;;
15645;SDS011;7922;43.622;1.476;2023-02-26T10:40:52;6.60;;;3.57;;
15645;SDS011;7922;43.622;1.476;2023-02-26T10:43:22;5.20;;;3.67;;
15645;SDS011;7922;43.622;1.476;2023-02-26T10:50:57;6.67;;;3.80;;
15645;SDS011;7922;43.622;1.476;2023-02-26T10:53:25;4.97;;;3.73;;
15645;SDS011;7922;43.622;1.476;2023-02-26T10:55:58;5.07;;;3.93;;
15645;SDS011;7922;43.622;1.476;2023-02-26T10:58:29;5.03;;;3.40;;
15645;SDS011;7922;43.622;1.476;2023-02-26T11:00:55;9.13;;;4.50;;
15645;SDS011;7922;43.622;1.476;2023-02-26T11:03:34;4.83;;;4.03;;
15645;SDS011;7922;43.622;1.476;2023-02-26T11:06:04;6.53;;;3.67;;
15645;SDS011;7922;43.622;1.476;2023-02-26T11:08:34;7.57;;;4.27;;
15645;SDS011;7922;43.622;1.476;2023-02-26T11:11:04;6.70;;;4.53;;
15645;SDS011;7922;43.622;1.476;2023-02-26T11:13:32;5.27;;;4.07;;
15645;SDS011;7922;43.622;1.476;2023-02-26T11:16:10;4.57;;;3.40;;
15645;SDS011;7922;43.622;1.476;2023-02-26T11:18:43;6.93;;;3.70;;
15645;SDS011;7922;43.622;1.476;2023-02-26T11:21:17;5.77;;;3.30;;
15645;SDS011;7922;43.622;1.476;2023-02-26T11:23:46;7.13;;;4.03;;
15645;SDS011;7922;43.622;1.476;2023-02-26T11:26:17;7.20;;;4.20;;
15645;SDS011;7922;43.622;1.476;2023-02-26T11:28:45;4.10;;;3.70;;
15645;SDS011;7922;43.622;1.476;2023-02-26T11:31:14;8.13;;;4.13;;
15645;SDS011;7922;43.622;1.476;2023-02-26T11:33:44;6.60;;;4.00;;
15645;SDS011;7922;43.622;1.476;2023-02-26T11:36:15;6.70;;;3.97;;
15645;SDS011;7922;43.622;1.476;2023-02-26T11:38:51;4.83;;;4.07;;
15645;SDS011;7922;43.622;1.476;2023-02-26T11:41:19;5.30;;;3.70;;
15645;SDS011;7922;43.622;1.476;2023-02-26T11:43:48;5.43;;;3.80;;
15645;SDS011;7922;43.622;1.476;2023-02-26T11:46:27;5.73;;;3.23;;
15645;SDS011;7922;43.622;1.476;2023-02-26T11:48:54;4.10;;;3.20;;
15645;SDS011;7922;43.622;1.476;2023-02-26T11:51:24;5.30;;;3.60;;
15645;SDS011;7922;43.622;1.476;2023-02-26T11:53:52;4.57;;;3.67;;
15645;SDS011;7922;43.622;1.476;2023-02-26T11:58:58;7.90;;;4.10;;
15645;SDS011;7922;43.622;1.476;2023-02-26T12:01:30;4.17;;;3.30;;
15645;SDS011;7922;43.622;1.476;2023-02-26T12:03:57;4.77;;;3.73;;
15645;SDS011;7922;43.622;1.476;2023-02-26T12:06:25;5.93;;;4.30;;
15645;SDS011;7922;43.622;1.476;2023-02-26T12:08:52;5.57;;;4.30;;
15645;SDS011;7922;43.622;1.476;2023-02-26T12:19:30;5.77;;;3.57;;
15645;SDS011;7922;43.622;1.476;2023-02-26T12:22:16;4.33;;;3.57;;
15645;SDS011;7922;43.622;1.476;2023-02-26T12:39:27;4.57;;;3.43;;
15645;SDS011;7922;43.622;1.476;2023-02-26T12:42:38;4.20;;;3.53;;
15645;SDS011;7922;43.622;1.476;2023-02-26T12:45:20;6.80;;;4.00;;
15645;SDS011;7922;43.622;1.476;2023-02-26T12:48:07;7.70;;;4.50;;
15645;SDS011;7922;43.622;1.476;2023-02-26T12:56:18;4.67;;;3.83;;
15645;SDS011;7922;43.622;1.476;2023-02-26T13:07:44;4.40;;;3.23;;
15645;SDS011;7922;43.622;1.476;2023-02-26T13:10:27;4.00;;;3.47;;
15645;SDS011;7922;43.622;1.476;2023-02-26T13:21:14;4.43;;;2.70;;
15645;SDS011;7922;43.622;1.476;2023-02-26T13:23:49;6.13;;;3.33;;
15645;SDS011;7922;43.622;1.476;2023-02-26T13:26:27;3.57;;;2.93;;
15645;SDS011;7922;43.622;1.476;2023-02-26T13:31:36;3.27;;;2.70;;
15645;SDS011;7922;43.622;1.476;2023-02-26T13:34:25;4.60;;;3.00;;
15645;SDS011;7922;43.622;1.476;2023-02-26T13:37:01;4.03;;;2.67;;
15645;SDS011;7922;43.622;1.476;2023-02-26T13:42:10;2.33;;;2.10;;
15645;SDS011;7922;43.622;1.476;2023-02-26T13:47:30;2.37;;;1.70;;
15645;SDS011;7922;43.622;1.476;2023-02-26T13:53:03;1.47;;;1.37;;
15645;SDS011;7922;43.622;1.476;2023-02-26T13:55:50;2.30;;;1.57;;
15645;SDS011;7922;43.622;1.476;2023-02-26T14:00:46;1.93;;;1.30;;
15645;SDS011;7922;43.622;1.476;2023-02-26T14:05:53;1.67;;;1.57;;
15645;SDS011;7922;43.622;1.476;2023-02-26T14:11:02;3.47;;;1.20;;
15645;SDS011;7922;43.622;1.476;2023-02-26T14:13:33;1.23;;;1.13;;
15645;SDS011;7922;43.622;1.476;2023-02-26T14:16:12;1.60;;;1.30;;
15645;SDS011;7922;43.622;1.476;2023-02-26T14:18:48;1.27;;;1.17;;
15645;SDS011;7922;43.622;1.476;2023-02-26T14:21:37;1.40;;;1.30;;
15645;SDS011;7922;43.622;1.476;2023-02-26T14:24:12;1.63;;;1.47;;
15645;SDS011;7922;43.622;1.476;2023-02-26T14:26:48;1.43;;;1.33;;
15645;SDS011;7922;43.622;1.476;2023-02-26T14:29:24;2.77;;;1.50;;
15645;SDS011;7922;43.622;1.476;2023-02-26T14:32:12;1.67;;;1.23;;
15645;SDS011;7922;43.622;1.476;2023-02-26T14:34:46;1.50;;;1.40;;
15645;SDS011;7922;43.622;1.476;2023-02-26T14:37:14;1.50;;;1.40;;
15645;SDS011;7922;43.622;1.476;2023-02-26T14:39:47;2.20;;;1.67;;
15645;SDS011;7922;43.622;1.476;2023-02-26T14:44:51;3.67;;;1.60;;
15645;SDS011;7922;43.622;1.476;2023-02-26T14:47:26;4.07;;;1.83;;
15645;SDS011;7922;43.622;1.476;2023-02-26T14:49:51;1.60;;;1.40;;
15645;SDS011;7922;43.622;1.476;2023-02-26T15:03:48;1.70;;;1.60;;
15645;SDS011;7922;43.622;1.476;2023-02-26T15:20:01;1.43;;;1.10;;
15645;SDS011;7922;43.622;1.476;2023-02-26T15:25:31;2.93;;;1.40;;
15645;SDS011;7922;43.622;1.476;2023-02-26T15:28:00;1.30;;;1.20;;
15645;SDS011;7922;43.622;1.476;2023-02-26T15:30:26;2.23;;;1.20;;
15645;SDS011;7922;43.622;1.476;2023-02-26T15:32:55;3.23;;;1.47;;
15645;SDS011;7922;43.622;1.476;2023-02-26T15:35:22;1.80;;;1.20;;
15645;SDS011;7922;43.622;1.476;2023-02-26T15:37:52;1.90;;;1.20;;
15645;SDS011;7922;43.622;1.476;2023-02-26T15:40:18;1.33;;;1.23;;
15645;SDS011;7922;43.622;1.476;2023-02-26T15:42:44;1.67;;;1.40;;
15645;SDS011;7922;43.622;1.476;2023-02-26T15:45:21;1.50;;;1.10;;
15645;SDS011;7922;43.622;1.476;2023-02-26T15:47:51;1.50;;;1.27;;
15645;SDS011;7922;43.622;1.476;2023-02-26T15:50:20;2.97;;;1.53;;
15645;SDS011;7922;43.622;1.476;2023-02-26T15:52:52;1.50;;;1.10;;
15645;SDS011;7922;43.622;1.476;2023-02-26T15:55:20;3.33;;;1.27;;
15645;SDS011;7922;43.622;1.476;2023-02-26T15:57:46;1.73;;;1.30;;
15645;SDS011;7922;43.622;1.476;2023-02-26T16:00:14;5.57;;;2.37;;
15645;SDS011;7922;43.622;1.476;2023-02-26T16:02:42;3.90;;;1.93;;
15645;SDS011;7922;43.622;1.476;2023-02-26T16:05:09;1.90;;;1.60;;
15645;SDS011;7922;43.622;1.476;2023-02-26T16:07:37;1.53;;;1.20;;
15645;SDS011;7922;43.622;1.476;2023-02-26T16:10:06;2.40;;;1.23;;
15645;SDS011;7922;43.622;1.476;2023-02-26T16:12:50;2.67;;;1.60;;
15645;SDS011;7922;43.622;1.476;2023-02-26T16:15:16;2.33;;;1.43;;
15645;SDS011;7922;43.622;1.476;2023-02-26T16:17:48;3.63;;;1.30;;
15645;SDS011;7922;43.622;1.476;2023-02-26T16:20:20;2.33;;;1.50;;
15645;SDS011;7922;43.622;1.476;2023-02-26T16:22:54;1.33;;;1.23;;
15645;SDS011;7922;43.622;1.476;2023-02-26T16:28:14;2.27;;;1.70;;
15645;SDS011;7922;43.622;1.476;2023-02-26T16:30:45;2.90;;;1.40;;
15645;SDS011;7922;43.622;1.476;2023-02-26T16:33:13;3.13;;;1.43;;
15645;SDS011;7922;43.622;1.476;2023-02-26T16:35:42;1.87;;;1.50;;
15645;SDS011;7922;43.622;1.476;2023-02-26T16:38:16;1.47;;;1.33;;
15645;SDS011;7922;43.622;1.476;2023-02-26T16:40:42;3.13;;;1.70;;
15645;SDS011;7922;43.622;1.476;2023-02-26T16:48:15;2.77;;;1.50;;
15645;SDS011;7922;43.622;1.476;2023-02-26T16:51:03;2.03;;;1.80;;
15645;SDS011;7922;43.622;1.476;2023-02-26T16:53:45;2.13;;;1.53;;
15645;SDS011;7922;43.622;1.476;2023-02-26T16:56:17;1.50;;;1.40;;
15645;SDS011;7922;43.622;1.476;2023-02-26T16:58:45;1.40;;;1.20;;
15645;SDS011;7922;43.622;1.476;2023-02-26T17:01:15;2.13;;;1.90;;
15645;SDS011;7922;43.622;1.476;2023-02-26T17:03:45;2.00;;;1.43;;
15645;SDS011;7922;43.622;1.476;2023-02-26T17:06:14;2.07;;;1.60;;
15645;SDS011;7922;43.622;1.476;2023-02-26T17:08:45;3.23;;;1.63;;
15645;SDS011;7922;43.622;1.476;2023-02-26T17:11:17;3.43;;;1.50;;
15645;SDS011;7922;43.622;1.476;2023-02-26T17:13:56;2.53;;;1.70;;
15645;SDS011;7922;43.622;1.476;2023-02-26T17:16:42;2.07;;;1.37;;
15645;SDS011;7922;43.622;1.476;2023-02-26T17:19:07;2.57;;;1.70;;
15645;SDS011;7922;43.622;1.476;2023-02-26T17:21:32;1.77;;;1.60;;
15645;SDS011;7922;43.622;1.476;2023-02-26T17:24:01;2.50;;;1.90;;
15645;SDS011;7922;43.622;1.476;2023-02-26T17:26:26;2.40;;;1.47;;
15645;SDS011;7922;43.622;1.476;2023-02-26T17:28:52;2.83;;;1.50;;
15645;SDS011;7922;43.622;1.476;2023-02-26T17:31:17;1.87;;;1.40;;
15645;SDS011;7922;43.622;1.476;2023-02-26T17:33:43;3.67;;;1.70;;
15645;SDS011;7922;43.622;1.476;2023-02-26T17:36:12;2.30;;;1.40;;
15645;SDS011;7922;43.622;1.476;2023-02-26T17:38:39;1.90;;;1.53;;
15645;SDS011;7922;43.622;1.476;2023-02-26T17:41:04;1.70;;;1.40;;
15645;SDS011;7922;43.622;1.476;2023-02-26T17:43:30;2.77;;;1.70;;
15645;SDS011;7922;43.622;1.476;2023-02-26T17:45:55;2.33;;;1.30;;
15645;SDS011;7922;43.622;1.476;2023-02-26T17:48:20;2.90;;;1.70;;
15645;SDS011;7922;43.622;1.476;2023-02-26T17:50:47;2.90;;;2.03;;
15645;SDS011;7922;43.622;1.476;2023-02-26T17:53:15;3.23;;;1.97;;
15645;SDS011;7922;43.622;1.476;2023-02-26T17:55:42;2.73;;;1.80;;
15645;SDS011;7922;43.622;1.476;2023-02-26T17:58:20;2.27;;;1.83;;
15645;SDS011;7922;43.622;1.476;2023-02-26T18:00:50;2.73;;;1.70;;
15645;SDS011;7922;43.622;1.476;2023-02-26T18:03:15;2.20;;;2.00;;
15645;SDS011;7922;43.622;1.476;2023-02-26T18:05:40;3.27;;;2.27;;